createdAt,value
2023-05-21T00:00:41.379Z,365.00
2023-05-21T00:01:41.349Z,366.00
2023-05-21T00:02:41.447Z,367.00
2023-05-21T00:03:41.500Z,369.00
2023-05-21T00:04:41.346Z,369.00
2023-05-21T00:05:41.383Z,369.00
2023-05-21T00:06:41.320Z,370.00
2023-05-21T00:07:41.298Z,369.00
2023-05-21T00:08:41.311Z,366.00
2023-05-21T00:09:41.306Z,367.00
2023-05-21T00:10:41.293Z,368.00
2023-05-21T00:11:41.268Z,366.00
2023-05-21T00:12:41.253Z,366.00
2023-05-21T00:13:41.239Z,365.00
2023-05-21T00:14:41.235Z,366.00
2023-05-21T00:15:41.263Z,365.00
2023-05-21T00:16:41.284Z,366.00
2023-05-21T00:17:41.310Z,365.00
2023-05-21T00:18:41.233Z,368.00
2023-05-21T00:19:41.196Z,368.00
2023-05-21T00:20:41.187Z,368.00
2023-05-21T00:21:41.186Z,365.00
2023-05-21T00:22:41.192Z,366.00
2023-05-21T00:23:41.196Z,363.00
2023-05-21T00:24:41.212Z,364.00
2023-05-21T00:25:41.253Z,365.00
2023-05-21T00:26:41.312Z,365.00
2023-05-21T00:27:41.325Z,366.00
2023-05-21T00:28:41.367Z,367.00
2023-05-21T00:29:43.616Z,368.00
2023-05-21T00:30:41.387Z,368.00
2023-05-21T00:31:41.469Z,366.00
2023-05-21T00:32:41.421Z,367.00
2023-05-21T00:33:41.338Z,365.00
2023-05-21T00:34:41.324Z,363.00
2023-05-21T00:35:41.315Z,363.00
2023-05-21T00:36:41.297Z,363.00
2023-05-21T00:37:41.283Z,363.00
2023-05-21T00:38:41.258Z,362.00
2023-05-21T00:39:41.245Z,365.00
2023-05-21T00:40:41.237Z,367.00
2023-05-21T00:41:41.230Z,364.00
2023-05-21T00:42:41.206Z,364.00
2023-05-21T00:43:41.184Z,366.00
2023-05-21T00:44:41.176Z,364.00
2023-05-21T00:45:41.214Z,362.00
2023-05-21T00:46:41.159Z,363.00
2023-05-21T00:47:41.197Z,361.00
2023-05-21T00:48:41.107Z,362.00
2023-05-21T00:49:41.115Z,362.00
2023-05-21T00:50:41.080Z,360.00
2023-05-21T00:51:41.059Z,359.00
2023-05-21T00:52:41.046Z,361.00
2023-05-21T00:53:41.038Z,363.00
2023-05-21T00:54:41.024Z,363.00
2023-05-21T00:55:41.030Z,362.00
2023-05-21T00:56:41.023Z,364.00
2023-05-21T00:57:40.997Z,366.00
2023-05-21T00:58:41.003Z,366.00
2023-05-21T00:59:40.977Z,365.00
2023-05-21T01:00:40.966Z,367.00
2023-05-21T01:01:41.044Z,366.00
2023-05-21T01:02:41.045Z,368.00
2023-05-21T01:03:41.052Z,369.00
2023-05-21T01:04:40.924Z,372.00
2023-05-21T01:05:40.902Z,373.00
2023-05-21T01:06:40.880Z,370.00
2023-05-21T01:07:40.876Z,369.00
2023-05-21T01:08:40.932Z,368.00
2023-05-21T01:09:40.884Z,368.00
2023-05-21T01:10:40.850Z,369.00
2023-05-21T01:11:40.837Z,367.00
2023-05-21T01:12:40.856Z,366.00
2023-05-21T01:13:40.833Z,367.00
2023-05-21T01:14:40.809Z,369.00
2023-05-21T01:15:40.804Z,367.00
2023-05-21T01:16:40.851Z,368.00
2023-05-21T01:17:40.781Z,365.00
2023-05-21T01:18:40.767Z,363.00
2023-05-21T01:19:40.751Z,364.00
2023-05-21T01:20:40.725Z,364.00
2023-05-21T01:21:40.701Z,362.00
2023-05-21T01:22:40.696Z,363.00
2023-05-21T01:23:40.682Z,363.00
2023-05-21T01:24:40.675Z,366.00
2023-05-21T01:25:40.672Z,368.00
2023-05-21T01:26:40.655Z,368.00
2023-05-21T01:27:40.643Z,369.00
2023-05-21T01:28:40.639Z,369.00
2023-05-21T01:29:40.645Z,369.00
2023-05-21T01:30:40.637Z,367.00
2023-05-21T01:31:40.641Z,366.00
2023-05-21T01:32:40.726Z,369.00
2023-05-21T01:33:40.699Z,368.00
2023-05-21T01:34:40.642Z,368.00
2023-05-21T01:35:40.627Z,371.00
2023-05-21T01:36:40.609Z,373.00
2023-05-21T01:37:40.636Z,371.00
2023-05-21T01:38:40.641Z,369.00
2023-05-21T01:39:40.633Z,370.00
2023-05-21T01:40:40.697Z,367.00
2023-05-21T01:41:40.647Z,369.00
2023-05-21T01:42:40.646Z,367.00
2023-05-21T01:43:40.639Z,369.00
2023-05-21T01:44:40.632Z,368.00
2023-05-21T01:45:40.645Z,368.00
2023-05-21T01:46:40.696Z,368.00
2023-05-21T01:47:40.717Z,370.00
2023-05-21T01:48:40.683Z,368.00
2023-05-21T01:49:40.662Z,369.00
2023-05-21T01:50:40.648Z,371.00
2023-05-21T01:51:40.650Z,371.00
2023-05-21T01:52:40.626Z,369.00
2023-05-21T01:53:40.612Z,368.00
2023-05-21T01:54:40.595Z,369.00
2023-05-21T01:55:40.580Z,369.00
2023-05-21T01:56:40.554Z,369.00
2023-05-21T01:57:40.556Z,369.00
2023-05-21T01:58:40.524Z,369.00
2023-05-21T01:59:40.512Z,369.00
2023-05-21T02:00:40.498Z,368.00
2023-05-21T02:01:40.540Z,369.00
2023-05-21T02:02:40.538Z,369.00
2023-05-21T02:03:40.570Z,366.00
2023-05-21T02:04:40.430Z,364.00
2023-05-21T02:05:40.408Z,364.00
2023-05-21T02:06:40.385Z,365.00
2023-05-21T02:07:40.404Z,366.00
2023-05-21T02:08:40.351Z,371.00
2023-05-21T02:09:40.350Z,371.00
2023-05-21T02:10:40.337Z,370.00
2023-05-21T02:11:40.323Z,369.00
2023-05-21T02:12:40.317Z,367.00
2023-05-21T02:13:40.296Z,365.00
2023-05-21T02:14:40.302Z,366.00
2023-05-21T02:15:40.277Z,365.00
2023-05-21T02:16:40.412Z,365.00
2023-05-21T02:17:40.280Z,366.00
2023-05-21T02:18:40.244Z,365.00
2023-05-21T02:19:40.248Z,363.00
2023-05-21T02:20:40.225Z,363.00
2023-05-21T02:21:40.227Z,363.00
2023-05-21T02:22:40.237Z,363.00
2023-05-21T02:23:40.251Z,362.00
2023-05-21T02:24:40.297Z,362.00
2023-05-21T02:25:40.306Z,362.00
2023-05-21T02:26:40.294Z,364.00
2023-05-21T02:27:40.310Z,363.00
2023-05-21T02:28:40.338Z,361.00
2023-05-21T02:29:40.398Z,361.00
2023-05-21T02:30:40.444Z,359.00
2023-05-21T02:31:40.477Z,359.00
2023-05-21T02:32:40.577Z,359.00
2023-05-21T02:33:40.694Z,359.00
2023-05-21T02:34:40.630Z,360.00
2023-05-21T02:35:40.699Z,361.00
2023-05-21T02:36:40.745Z,364.00
2023-05-21T02:37:40.772Z,366.00
2023-05-21T02:38:40.728Z,366.00
2023-05-21T02:39:40.724Z,367.00
2023-05-21T02:40:40.724Z,366.00
2023-05-21T02:41:40.710Z,368.00
2023-05-21T02:42:40.712Z,366.00
2023-05-21T02:43:40.685Z,364.00
2023-05-21T02:44:40.682Z,362.00
2023-05-21T02:45:40.719Z,363.00
2023-05-21T02:46:40.663Z,364.00
2023-05-21T02:47:40.741Z,365.00
2023-05-21T02:48:40.655Z,363.00
2023-05-21T02:49:40.652Z,362.00
2023-05-21T02:50:40.637Z,362.00
2023-05-21T02:51:40.631Z,360.00
2023-05-21T02:52:40.606Z,360.00
2023-05-21T02:53:40.617Z,360.00
2023-05-21T02:54:40.615Z,359.00
2023-05-21T02:55:40.598Z,358.00
2023-05-21T02:56:40.595Z,359.00
2023-05-21T02:57:40.566Z,358.00
2023-05-21T02:58:40.566Z,359.00
2023-05-21T02:59:40.557Z,355.00
2023-05-21T03:00:40.561Z,356.00
2023-05-21T03:01:40.566Z,357.00
2023-05-21T03:02:40.706Z,356.00
2023-05-21T03:03:40.613Z,357.00
2023-05-21T03:04:40.513Z,355.00
2023-05-21T03:05:40.521Z,354.00
2023-05-21T03:06:40.551Z,356.00
2023-05-21T03:07:40.508Z,359.00
2023-05-21T03:08:40.500Z,360.00
2023-05-21T03:09:40.501Z,360.00
2023-05-21T03:10:40.489Z,361.00
2023-05-21T03:11:40.489Z,360.00
2023-05-21T03:12:40.474Z,361.00
2023-05-21T03:13:40.500Z,361.00
2023-05-21T03:14:40.472Z,363.00
2023-05-21T03:15:40.475Z,365.00
2023-05-21T03:16:40.475Z,366.00
2023-05-21T03:17:40.503Z,367.00
2023-05-21T03:18:40.431Z,368.00
2023-05-21T03:19:40.406Z,369.00
2023-05-21T03:20:40.410Z,369.00
2023-05-21T03:21:40.408Z,369.00
2023-05-21T03:22:40.386Z,371.00
2023-05-21T03:23:40.365Z,370.00
2023-05-21T03:24:40.366Z,371.00
2023-05-21T03:25:40.352Z,373.00
2023-05-21T03:26:40.358Z,373.00
2023-05-21T03:27:40.325Z,374.00
2023-05-21T03:28:40.294Z,376.00
2023-05-21T03:29:40.293Z,374.00
2023-05-21T03:30:40.287Z,375.00
2023-05-21T03:31:40.281Z,373.00
2023-05-21T03:32:40.303Z,374.00
2023-05-21T03:33:40.252Z,375.00
2023-05-21T03:34:40.260Z,373.00
2023-05-21T03:35:40.250Z,374.00
2023-05-21T03:36:40.211Z,371.00
2023-05-21T03:37:40.220Z,370.00
2023-05-21T03:38:40.190Z,370.00
2023-05-21T03:39:40.188Z,373.00
2023-05-21T03:40:40.193Z,371.00
2023-05-21T03:41:40.168Z,371.00
2023-05-21T03:42:40.172Z,371.00
2023-05-21T03:43:40.148Z,372.00
2023-05-21T03:44:40.148Z,372.00
2023-05-21T03:45:43.590Z,373.00
2023-05-21T03:46:40.160Z,371.00
2023-05-21T03:47:40.256Z,368.00
2023-05-21T03:48:40.241Z,366.00
2023-05-21T03:49:40.138Z,364.00
2023-05-21T03:50:40.129Z,366.00
2023-05-21T03:51:40.099Z,368.00
2023-05-21T03:52:40.108Z,369.00
2023-05-21T03:53:40.109Z,370.00
2023-05-21T03:54:40.107Z,368.00
2023-05-21T03:55:40.122Z,368.00
2023-05-21T03:56:40.098Z,368.00
2023-05-21T03:57:40.107Z,368.00
2023-05-21T03:58:40.129Z,369.00
2023-05-21T03:59:40.086Z,369.00
2023-05-21T04:00:40.090Z,369.00
2023-05-21T04:01:40.090Z,370.00
2023-05-21T04:02:40.177Z,371.00
2023-05-21T04:03:41.040Z,371.00
2023-05-21T04:04:40.069Z,370.00
2023-05-21T04:05:40.104Z,369.00
2023-05-21T04:06:40.057Z,370.00
2023-05-21T04:07:40.052Z,369.00
2023-05-21T04:08:40.069Z,368.00
2023-05-21T04:09:40.049Z,368.00
2023-05-21T04:10:40.077Z,367.00
2023-05-21T04:11:40.055Z,365.00
2023-05-21T04:12:40.047Z,367.00
2023-05-21T04:13:40.073Z,367.00
2023-05-21T04:14:40.051Z,369.00
2023-05-21T04:15:40.185Z,368.00
2023-05-21T04:16:40.088Z,368.00
2023-05-21T04:17:40.112Z,369.00
2023-05-21T04:18:40.048Z,366.00
2023-05-21T04:19:40.078Z,366.00
2023-05-21T04:20:40.017Z,367.00
2023-05-21T04:21:40.056Z,367.00
2023-05-21T04:22:40.094Z,367.00
2023-05-21T04:23:40.196Z,365.00
2023-05-21T04:24:40.207Z,363.00
2023-05-21T04:25:40.251Z,365.00
2023-05-21T04:26:40.307Z,364.00
2023-05-21T04:27:40.368Z,365.00
2023-05-21T04:28:40.437Z,366.00
2023-05-21T04:29:40.503Z,367.00
2023-05-21T04:30:40.559Z,368.00
2023-05-21T04:31:40.667Z,369.00
2023-05-21T04:32:40.713Z,368.00
2023-05-21T04:33:40.741Z,369.00
2023-05-21T04:34:40.813Z,369.00
2023-05-21T04:35:40.864Z,369.00
2023-05-21T04:36:40.929Z,370.00
2023-05-21T04:37:40.980Z,371.00
2023-05-21T04:38:41.045Z,370.00
2023-05-21T04:39:41.133Z,371.00
2023-05-21T04:40:41.170Z,370.00
2023-05-21T04:41:41.242Z,371.00
2023-05-21T04:42:41.317Z,372.00
2023-05-21T04:43:41.372Z,370.00
2023-05-21T04:44:41.458Z,369.00
2023-05-21T04:45:41.440Z,370.00
2023-05-21T04:46:42.016Z,368.00
2023-05-21T04:47:41.456Z,370.00
2023-05-21T04:48:41.424Z,370.00
2023-05-21T04:49:41.420Z,368.00
2023-05-21T04:50:41.566Z,368.00
2023-05-21T04:51:41.413Z,367.00
2023-05-21T04:52:41.397Z,370.00
2023-05-21T04:53:41.403Z,368.00
2023-05-21T04:54:41.465Z,367.00
2023-05-21T04:55:41.542Z,368.00
2023-05-21T04:56:41.592Z,368.00
2023-05-21T04:57:41.679Z,369.00
2023-05-21T04:58:41.741Z,371.00
2023-05-21T04:59:41.799Z,370.00
2023-05-21T05:00:41.885Z,370.00
2023-05-21T05:01:41.912Z,371.00
2023-05-21T05:02:42.051Z,371.00
2023-05-21T05:03:42.064Z,370.00
2023-05-21T05:04:42.097Z,369.00
2023-05-21T05:05:42.158Z,368.00
2023-05-21T05:06:42.169Z,368.00
2023-05-21T05:07:42.244Z,370.00
2023-05-21T05:08:42.326Z,368.00
2023-05-21T05:09:42.347Z,369.00
2023-05-21T05:10:42.380Z,369.00
2023-05-21T05:11:42.341Z,368.00
2023-05-21T05:12:42.323Z,366.00
2023-05-21T05:13:42.373Z,367.00
2023-05-21T05:14:42.340Z,365.00
2023-05-21T05:15:42.446Z,365.00
2023-05-21T05:16:42.326Z,364.00
2023-05-21T05:17:42.367Z,361.00
2023-05-21T05:18:42.469Z,363.00
2023-05-21T05:19:42.406Z,364.00
2023-05-21T05:20:42.464Z,363.00
2023-05-21T05:21:42.522Z,362.00
2023-05-21T05:22:42.587Z,361.00
2023-05-21T05:23:42.637Z,363.00
2023-05-21T05:24:42.719Z,363.00
2023-05-21T05:25:42.637Z,363.00
2023-05-21T05:26:42.643Z,361.00
2023-05-21T05:27:42.646Z,360.00
2023-05-21T05:28:42.652Z,358.00
2023-05-21T05:29:42.647Z,357.00
2023-05-21T05:30:42.671Z,359.00
2023-05-21T05:31:42.646Z,358.00
2023-05-21T05:32:42.665Z,360.00
2023-05-21T05:33:42.666Z,360.00
2023-05-21T05:34:42.736Z,358.00
2023-05-21T05:35:42.786Z,362.00
2023-05-21T05:36:42.871Z,361.00
2023-05-21T05:37:42.927Z,361.00
2023-05-21T05:38:42.991Z,360.00
2023-05-21T05:39:43.050Z,360.00
2023-05-21T05:40:43.132Z,360.00
2023-05-21T05:41:43.185Z,362.00
2023-05-21T05:42:43.241Z,360.00
2023-05-21T05:43:43.310Z,358.00
2023-05-21T05:44:43.380Z,360.00
2023-05-21T05:45:43.436Z,359.00
2023-05-21T05:46:43.659Z,361.00
2023-05-21T05:47:43.587Z,361.00
2023-05-21T05:48:43.627Z,361.00
2023-05-21T05:49:43.693Z,359.00
2023-05-21T05:50:43.774Z,357.00
2023-05-21T05:51:43.828Z,355.00
2023-05-21T05:52:43.922Z,356.00
2023-05-21T05:53:43.980Z,356.00
2023-05-21T05:54:44.036Z,356.00
2023-05-21T05:55:44.098Z,355.00
2023-05-21T05:56:44.153Z,355.00
2023-05-21T05:57:45.209Z,355.00
2023-05-21T05:58:44.273Z,354.00
2023-05-21T05:59:44.302Z,356.00
2023-05-21T06:00:44.374Z,354.00
2023-05-21T06:01:44.451Z,354.00
2023-05-21T06:02:44.584Z,355.00
2023-05-21T06:03:44.629Z,357.00
2023-05-21T06:04:44.597Z,360.00
2023-05-21T06:05:44.673Z,359.00
2023-05-21T06:06:44.716Z,357.00
2023-05-21T06:07:44.791Z,356.00
2023-05-21T06:08:44.842Z,356.00
2023-05-21T06:09:44.896Z,356.00
2023-05-21T06:10:44.971Z,357.00
2023-05-21T06:11:45.120Z,358.00
2023-05-21T06:12:45.095Z,359.00
2023-05-21T06:13:45.123Z,358.00
2023-05-21T06:14:45.384Z,357.00
2023-05-21T06:15:45.269Z,356.00
2023-05-21T06:16:45.269Z,358.00
2023-05-21T06:17:45.327Z,358.00
2023-05-21T06:18:45.389Z,356.00
2023-05-21T06:19:45.380Z,358.00
2023-05-21T06:20:45.436Z,359.00
2023-05-21T06:21:45.469Z,359.00
2023-05-21T06:22:45.516Z,358.00
2023-05-21T06:23:45.556Z,358.00
2023-05-21T06:24:45.555Z,358.00
2023-05-21T06:25:45.555Z,357.00
2023-05-21T06:26:45.540Z,357.00
2023-05-21T06:27:45.537Z,359.00
2023-05-21T06:28:45.555Z,357.00
2023-05-21T06:29:45.523Z,358.00
2023-05-21T06:30:45.537Z,360.00
2023-05-21T06:31:45.524Z,359.00
2023-05-21T06:32:45.561Z,359.00
2023-05-21T06:33:45.612Z,357.00
2023-05-21T06:34:45.515Z,356.00
2023-05-21T06:35:45.500Z,356.00
2023-05-21T06:36:45.502Z,355.00
2023-05-21T06:37:45.549Z,352.00
2023-05-21T06:38:45.583Z,355.00
2023-05-21T06:39:45.613Z,356.00
2023-05-21T06:40:45.660Z,359.00
2023-05-21T06:41:45.687Z,360.00
2023-05-21T06:42:45.754Z,359.00
2023-05-21T06:43:45.778Z,358.00
2023-05-21T06:44:45.832Z,358.00
2023-05-21T06:45:45.883Z,357.00
2023-05-21T06:46:45.873Z,358.00
2023-05-21T06:47:45.935Z,356.00
2023-05-21T06:48:45.936Z,357.00
2023-05-21T06:49:45.963Z,356.00
2023-05-21T06:50:45.997Z,355.00
2023-05-21T06:51:45.999Z,355.00
2023-05-21T06:52:46.035Z,356.00
2023-05-21T06:53:46.063Z,353.00
2023-05-21T06:54:46.089Z,355.00
2023-05-21T06:55:46.128Z,358.00
2023-05-21T06:56:46.155Z,358.00
2023-05-21T06:57:46.176Z,358.00
2023-05-21T06:58:46.185Z,359.00
2023-05-21T06:59:46.233Z,360.00
2023-05-21T07:00:46.364Z,357.00
2023-05-21T07:01:46.358Z,355.00
2023-05-21T07:02:46.383Z,353.00
2023-05-21T07:03:46.364Z,355.00
2023-05-21T07:04:46.332Z,354.00
2023-05-21T07:05:46.334Z,359.00
2023-05-21T07:06:46.348Z,360.00
2023-05-21T07:07:46.377Z,360.00
2023-05-21T07:08:46.375Z,357.00
2023-05-21T07:09:46.383Z,356.00
2023-05-21T07:10:46.404Z,355.00
2023-05-21T07:11:46.405Z,356.00
2023-05-21T07:12:46.387Z,353.00
2023-05-21T07:13:46.397Z,355.00
2023-05-21T07:14:46.402Z,357.00
2023-05-21T07:15:46.410Z,357.00
2023-05-21T07:16:46.444Z,356.00
2023-05-21T07:17:46.402Z,355.00
2023-05-21T07:18:46.393Z,353.00
2023-05-21T07:19:46.376Z,356.00
2023-05-21T07:20:46.402Z,356.00
2023-05-21T07:21:46.361Z,357.00
2023-05-21T07:22:46.363Z,358.00
2023-05-21T07:23:46.356Z,358.00
2023-05-21T07:24:46.370Z,356.00
2023-05-21T07:25:46.368Z,356.00
2023-05-21T07:26:46.376Z,356.00
2023-05-21T07:27:46.340Z,357.00
2023-05-21T07:28:46.370Z,356.00
2023-05-21T07:29:46.348Z,354.00
2023-05-21T07:30:46.363Z,356.00
2023-05-21T07:31:46.322Z,358.00
2023-05-21T07:32:46.346Z,357.00
2023-05-21T07:33:46.334Z,357.00
2023-05-21T07:34:46.351Z,361.00
2023-05-21T07:35:46.349Z,361.00
2023-05-21T07:36:46.333Z,360.00
2023-05-21T07:37:46.340Z,357.00
2023-05-21T07:38:46.342Z,357.00
2023-05-21T07:39:46.310Z,357.00
2023-05-21T07:40:46.327Z,357.00
2023-05-21T07:41:46.312Z,358.00
2023-05-21T07:42:46.335Z,356.00
2023-05-21T07:43:46.387Z,356.00
2023-05-21T07:44:46.444Z,357.00
2023-05-21T07:45:46.536Z,357.00
2023-05-21T07:46:46.630Z,358.00
2023-05-21T07:47:46.580Z,359.00
2023-05-21T07:48:46.558Z,360.00
2023-05-21T07:49:46.543Z,360.00
2023-05-21T07:50:46.536Z,362.00
2023-05-21T07:51:46.534Z,365.00
2023-05-21T07:52:46.578Z,366.00
2023-05-21T07:53:46.528Z,367.00
2023-05-21T07:54:46.514Z,366.00
2023-05-21T07:55:46.519Z,367.00
2023-05-21T07:56:46.542Z,365.00
2023-05-21T07:57:46.494Z,364.00
2023-05-21T07:58:46.541Z,363.00
2023-05-21T07:59:46.597Z,363.00
2023-05-21T08:00:46.688Z,361.00
2023-05-21T08:01:46.721Z,362.00
2023-05-21T08:02:46.828Z,364.00
2023-05-21T08:03:46.787Z,364.00
2023-05-21T08:04:46.784Z,364.00
2023-05-21T08:05:46.686Z,364.00
2023-05-21T08:06:46.665Z,364.00
2023-05-21T08:07:46.656Z,363.00
2023-05-21T08:08:46.639Z,364.00
2023-05-21T08:09:46.664Z,364.00
2023-05-21T08:10:46.716Z,362.00
2023-05-21T08:11:46.788Z,362.00
2023-05-21T08:12:46.800Z,364.00
2023-05-21T08:13:46.864Z,366.00
2023-05-21T08:14:46.918Z,364.00
2023-05-21T08:15:47.107Z,363.00
2023-05-21T08:16:47.081Z,363.00
2023-05-21T08:17:47.110Z,366.00
2023-05-21T08:18:47.166Z,368.00
2023-05-21T08:19:47.159Z,369.00
2023-05-21T08:20:47.223Z,371.00
2023-05-21T08:21:47.260Z,369.00
2023-05-21T08:22:47.302Z,367.00
2023-05-21T08:23:47.345Z,365.00
2023-05-21T08:24:47.386Z,364.00
2023-05-21T08:25:47.374Z,363.00
2023-05-21T08:26:47.452Z,363.00
2023-05-21T08:27:47.346Z,366.00
2023-05-21T08:28:47.345Z,364.00
2023-05-21T08:29:47.341Z,362.00
2023-05-21T08:30:47.332Z,361.00
2023-05-21T08:31:47.332Z,360.00
2023-05-21T08:32:47.346Z,361.00
2023-05-21T08:33:47.287Z,361.00
2023-05-21T08:34:47.267Z,362.00
2023-05-21T08:35:47.259Z,363.00
2023-05-21T08:36:47.253Z,364.00
2023-05-21T08:37:47.246Z,362.00
2023-05-21T08:38:47.227Z,363.00
2023-05-21T08:39:47.212Z,363.00
2023-05-21T08:40:47.213Z,363.00
2023-05-21T08:41:47.220Z,365.00
2023-05-21T08:42:47.252Z,366.00
2023-05-21T08:43:49.362Z,364.00
2023-05-21T08:44:47.271Z,363.00
2023-05-21T08:45:47.295Z,364.00
2023-05-21T08:46:47.248Z,362.00
2023-05-21T08:47:47.278Z,364.00
2023-05-21T08:48:47.238Z,364.00
2023-05-21T08:49:47.199Z,365.00
2023-05-21T08:50:47.216Z,365.00
2023-05-21T08:51:47.189Z,363.00
2023-05-21T08:52:47.180Z,363.00
2023-05-21T08:53:47.157Z,364.00
2023-05-21T08:54:47.134Z,363.00
2023-05-21T08:55:47.135Z,364.00
2023-05-21T08:56:47.178Z,364.00
2023-05-21T08:57:47.107Z,365.00
2023-05-21T08:58:47.101Z,365.00
2023-05-21T08:59:47.083Z,362.00
2023-05-21T09:00:47.075Z,363.00
2023-05-21T09:01:47.149Z,362.00
2023-05-21T09:02:47.101Z,362.00
2023-05-21T09:03:47.172Z,360.00
2023-05-21T09:04:47.140Z,360.00
2023-05-21T09:05:47.100Z,360.00
2023-05-21T09:06:47.107Z,363.00
2023-05-21T09:07:47.114Z,364.00
2023-05-21T09:08:47.119Z,365.00
2023-05-21T09:09:47.137Z,366.00
2023-05-21T09:10:47.136Z,369.00
2023-05-21T09:11:47.159Z,369.00
2023-05-21T09:12:47.164Z,368.00
2023-05-21T09:13:47.170Z,368.00
2023-05-21T09:14:47.164Z,367.00
2023-05-21T09:15:47.190Z,368.00
2023-05-21T09:16:47.209Z,369.00
2023-05-21T09:17:47.196Z,369.00
2023-05-21T09:18:47.212Z,368.00
2023-05-21T09:19:47.160Z,365.00
2023-05-21T09:20:47.162Z,365.00
2023-05-21T09:21:47.188Z,366.00
2023-05-21T09:22:47.187Z,364.00
2023-05-21T09:23:47.196Z,364.00
2023-05-21T09:24:47.199Z,364.00
2023-05-21T09:25:47.193Z,361.00
2023-05-21T09:26:47.168Z,361.00
2023-05-21T09:27:47.162Z,363.00
2023-05-21T09:28:47.163Z,363.00
2023-05-21T09:29:47.155Z,361.00
2023-05-21T09:30:47.201Z,361.00
2023-05-21T09:31:47.259Z,362.00
2023-05-21T09:32:47.137Z,362.00
2023-05-21T09:33:47.155Z,362.00
2023-05-21T09:34:47.109Z,362.00
2023-05-21T09:35:47.142Z,363.00
2023-05-21T09:36:47.137Z,364.00
2023-05-21T09:37:47.117Z,363.00
2023-05-21T09:38:47.131Z,364.00
2023-05-21T09:39:47.129Z,363.00
2023-05-21T09:40:47.131Z,362.00
2023-05-21T09:41:47.129Z,362.00
2023-05-21T09:42:47.143Z,362.00
2023-05-21T09:43:47.174Z,360.00
2023-05-21T09:44:47.207Z,360.00
2023-05-21T09:45:47.186Z,356.00
2023-05-21T09:46:47.200Z,358.00
2023-05-21T09:47:47.187Z,357.00
2023-05-21T09:48:47.138Z,359.00
2023-05-21T09:49:47.155Z,360.00
2023-05-21T09:50:47.100Z,361.00
2023-05-21T09:51:47.115Z,360.00
2023-05-21T09:52:47.078Z,360.00
2023-05-21T09:53:47.139Z,360.00
2023-05-21T09:54:47.182Z,358.00
2023-05-21T09:55:47.242Z,357.00
2023-05-21T09:56:47.291Z,357.00
2023-05-21T09:57:49.803Z,358.00
2023-05-21T09:58:47.322Z,357.00
2023-05-21T09:59:47.315Z,355.00
2023-05-21T10:00:47.283Z,357.00
2023-05-21T10:01:47.299Z,356.00
2023-05-21T10:02:47.389Z,356.00
2023-05-21T10:03:49.260Z,357.00
2023-05-21T10:04:47.241Z,357.00
2023-05-21T10:05:47.240Z,357.00
2023-05-21T10:06:47.188Z,359.00
2023-05-21T10:07:47.160Z,360.00
2023-05-21T10:08:47.164Z,359.00
2023-05-21T10:09:47.112Z,360.00
2023-05-21T10:10:47.105Z,358.00
2023-05-21T10:11:47.172Z,358.00
2023-05-21T10:12:47.130Z,359.00
2023-05-21T10:13:47.034Z,361.00
2023-05-21T10:14:47.002Z,361.00
2023-05-21T10:15:48.274Z,362.00
2023-05-21T10:16:47.073Z,362.00
2023-05-21T10:17:46.995Z,361.00
2023-05-21T10:18:46.949Z,359.00
2023-05-21T10:19:46.906Z,356.00
2023-05-21T10:20:46.868Z,358.00
2023-05-21T10:21:46.855Z,359.00
2023-05-21T10:22:46.819Z,361.00
2023-05-21T10:23:46.791Z,364.00
2023-05-21T10:24:46.759Z,362.00
2023-05-21T10:25:46.755Z,361.00
2023-05-21T10:26:46.704Z,362.00
2023-05-21T10:27:46.696Z,360.00
2023-05-21T10:28:46.671Z,361.00
2023-05-21T10:29:46.682Z,359.00
2023-05-21T10:30:46.623Z,360.00
2023-05-21T10:31:46.617Z,360.00
2023-05-21T10:32:46.766Z,359.00
2023-05-21T10:33:46.528Z,357.00
2023-05-21T10:34:46.490Z,358.00
2023-05-21T10:35:46.510Z,357.00
2023-05-21T10:36:46.439Z,355.00
2023-05-21T10:37:46.445Z,359.00
2023-05-21T10:38:46.375Z,356.00
2023-05-21T10:39:46.374Z,356.00
2023-05-21T10:40:46.372Z,355.00
2023-05-21T10:41:46.292Z,358.00
2023-05-21T10:42:46.272Z,355.00
2023-05-21T10:43:46.289Z,355.00
2023-05-21T10:44:46.235Z,356.00
2023-05-21T10:45:46.306Z,354.00
2023-05-21T10:46:46.196Z,353.00
2023-05-21T10:47:46.190Z,350.00
2023-05-21T10:48:46.142Z,353.00
2023-05-21T10:49:46.132Z,354.00
2023-05-21T10:50:46.099Z,353.00
2023-05-21T10:51:46.070Z,355.00
2023-05-21T10:52:46.076Z,354.00
2023-05-21T10:53:46.012Z,354.00
2023-05-21T10:54:46.000Z,354.00
2023-05-21T10:55:45.977Z,355.00
2023-05-21T10:56:45.938Z,356.00
2023-05-21T10:57:45.910Z,358.00
2023-05-21T10:58:45.887Z,358.00
2023-05-21T10:59:45.897Z,360.00
2023-05-21T11:00:45.859Z,360.00
2023-05-21T11:01:45.966Z,361.00
2023-05-21T11:02:45.917Z,360.00
2023-05-21T11:03:45.938Z,359.00
2023-05-21T11:04:45.888Z,359.00
2023-05-21T11:05:45.897Z,360.00
2023-05-21T11:06:45.928Z,359.00
2023-05-21T11:07:45.941Z,360.00
2023-05-21T11:08:45.943Z,358.00
2023-05-21T11:09:45.952Z,359.00
2023-05-21T11:10:46.013Z,359.00
2023-05-21T11:11:46.065Z,358.00
2023-05-21T11:12:46.028Z,358.00
2023-05-21T11:13:46.023Z,357.00
2023-05-21T11:14:46.069Z,357.00
2023-05-21T11:15:46.065Z,357.00
2023-05-21T11:16:46.175Z,356.00
2023-05-21T11:17:46.160Z,356.00
2023-05-21T11:18:46.211Z,356.00
2023-05-21T11:19:46.165Z,355.00
2023-05-21T11:20:46.197Z,353.00
2023-05-21T11:21:46.204Z,355.00
2023-05-21T11:22:46.208Z,353.00
2023-05-21T11:23:46.255Z,352.00
2023-05-21T11:24:46.870Z,355.00
2023-05-21T11:25:46.280Z,357.00
2023-05-21T11:26:46.283Z,356.00
2023-05-21T11:27:46.308Z,356.00
2023-05-21T11:28:46.327Z,357.00
2023-05-21T11:29:46.358Z,359.00
2023-05-21T11:30:46.385Z,359.00
2023-05-21T11:31:46.476Z,358.00
2023-05-21T11:32:46.481Z,357.00
2023-05-21T11:33:46.445Z,357.00
2023-05-21T11:34:46.472Z,359.00
2023-05-21T11:35:46.475Z,358.00
2023-05-21T11:36:46.503Z,358.00
2023-05-21T11:37:46.510Z,359.00
2023-05-21T11:38:46.530Z,360.00
2023-05-21T11:39:46.559Z,360.00
2023-05-21T11:40:46.570Z,357.00
2023-05-21T11:41:46.588Z,353.00
2023-05-21T11:42:46.588Z,353.00
2023-05-21T11:43:46.569Z,352.00
2023-05-21T11:44:46.560Z,352.00
2023-05-21T11:45:46.540Z,350.00
2023-05-21T11:46:46.558Z,351.00
2023-05-21T11:47:46.495Z,351.00
2023-05-21T11:48:46.432Z,351.00
2023-05-21T11:49:46.462Z,352.00
2023-05-21T11:50:46.398Z,350.00
2023-05-21T11:51:46.393Z,351.00
2023-05-21T11:52:46.326Z,350.00
2023-05-21T11:53:46.322Z,352.00
2023-05-21T11:54:46.525Z,352.00
2023-05-21T11:55:46.233Z,352.00
2023-05-21T11:56:46.238Z,353.00
2023-05-21T11:57:46.185Z,355.00
2023-05-21T11:58:46.151Z,355.00
2023-05-21T11:59:46.115Z,354.00
2023-05-21T12:00:46.105Z,356.00
2023-05-21T12:01:46.050Z,354.00
2023-05-21T12:02:46.086Z,354.00
2023-05-21T12:03:46.156Z,356.00
2023-05-21T12:04:45.968Z,357.00
2023-05-21T12:05:46.016Z,355.00
2023-05-21T12:06:45.975Z,354.00
2023-05-21T12:07:46.014Z,354.00
2023-05-21T12:08:45.993Z,351.00
2023-05-21T12:09:46.081Z,352.00
2023-05-21T12:10:46.290Z,354.00
2023-05-21T12:11:46.061Z,355.00
2023-05-21T12:12:54.881Z,357.00
2023-05-21T12:13:47.074Z,357.00
2023-05-21T12:14:46.025Z,358.00
2023-05-21T12:15:46.017Z,359.00
2023-05-21T12:16:46.024Z,359.00
2023-05-21T12:17:45.983Z,359.00
2023-05-21T12:18:45.957Z,360.00
2023-05-21T12:19:45.932Z,360.00
2023-05-21T12:20:45.892Z,360.00
2023-05-21T12:21:45.872Z,361.00
2023-05-21T12:22:45.859Z,363.00
2023-05-21T12:23:45.816Z,364.00
2023-05-21T12:24:45.820Z,363.00
2023-05-21T12:25:45.789Z,364.00
2023-05-21T12:26:45.752Z,365.00
2023-05-21T12:27:45.714Z,366.00
2023-05-21T12:28:45.712Z,364.00